createdAt,value
2023-04-27T04:31:15.969Z,101724.56
2023-04-27T04:33:42.530Z,101728.88
2023-04-27T04:36:09.307Z,101731.53
2023-04-27T04:38:35.891Z,101720.16
2023-04-27T04:41:02.460Z,101720.19
2023-04-27T04:43:29.015Z,101727.28
2023-04-27T04:45:55.677Z,101727.25
2023-04-27T04:48:22.232Z,101728.97
2023-04-27T04:50:48.776Z,101731.69
2023-04-27T04:53:15.397Z,101733.50
2023-04-27T04:55:42.048Z,101735.25
2023-04-27T04:58:08.646Z,101737.06
2023-04-27T05:00:35.232Z,101741.47
2023-04-27T05:03:01.879Z,101744.91
2023-04-27T05:05:28.534Z,101742.25
2023-04-27T05:07:55.115Z,101751.06
2023-04-27T05:10:21.671Z,101752.81
2023-04-27T05:12:48.190Z,101758.97
2023-04-27T05:15:14.817Z,101758.97
2023-04-27T05:17:41.573Z,101755.41
2023-04-27T05:20:09.644Z,101756.31
2023-04-27T05:22:36.266Z,101753.69
2023-04-27T05:25:02.869Z,101753.81
2023-04-27T05:27:29.433Z,101751.19
2023-04-27T05:29:55.995Z,101748.63
2023-04-27T05:32:22.538Z,101752.16
2023-04-27T05:34:49.654Z,101751.38
2023-04-27T05:37:16.312Z,101748.78
2023-04-27T05:39:42.930Z,101753.31
2023-04-27T05:42:09.484Z,101746.31
2023-04-27T05:44:36.102Z,101746.31
2023-04-27T05:47:02.700Z,101749.00
2023-04-27T05:49:29.271Z,101745.50
2023-04-27T05:51:55.842Z,101752.59
2023-04-27T05:54:22.480Z,101752.63
2023-04-27T05:56:49.011Z,101758.81
2023-04-27T05:59:15.881Z,101753.59
2023-04-27T06:01:42.956Z,101763.38
2023-04-27T06:04:09.603Z,101769.56
2023-04-27T06:06:36.205Z,101764.28
2023-04-27T06:09:02.828Z,101770.47
2023-04-27T06:11:29.333Z,101773.16
2023-04-27T06:13:55.877Z,101772.28
2023-04-27T06:16:23.498Z,101773.16
2023-04-27T06:18:50.713Z,101774.06
2023-04-27T06:21:17.504Z,101772.28
2023-04-27T06:23:44.077Z,101769.69
2023-04-27T06:26:10.613Z,101780.25
2023-04-27T06:28:37.177Z,101777.66
2023-04-27T06:31:03.891Z,101778.53
2023-04-27T06:33:30.384Z,101781.22
2023-04-27T06:35:56.934Z,101777.72
2023-04-27T06:38:23.534Z,101782.19
2023-04-27T06:40:52.870Z,101777.81
2023-04-27T06:43:19.440Z,101779.63
2023-04-27T06:45:46.123Z,101772.59
2023-04-27T06:48:12.824Z,101773.53
2023-04-27T06:50:39.606Z,101762.97
2023-04-27T06:53:06.174Z,101766.50
2023-04-27T06:55:32.745Z,101768.31
2023-04-27T06:57:59.361Z,101759.53
2023-04-27T07:00:26.093Z,101756.88
2023-04-27T07:02:52.839Z,101756.94
2023-04-27T07:05:19.413Z,101770.19
2023-04-27T07:07:45.934Z,101774.59
2023-04-27T07:10:12.455Z,101783.44
2023-04-27T07:12:39.535Z,101784.31
2023-04-27T07:15:06.779Z,101799.38
2023-04-27T07:17:33.460Z,101795.84
2023-04-27T07:20:01.118Z,101802.06
2023-04-27T07:22:27.677Z,101799.44
2023-04-27T07:24:54.222Z,101807.41
2023-04-27T07:27:20.826Z,101806.50
2023-04-27T07:29:47.373Z,101805.63
2023-04-27T07:32:14.041Z,101805.56
2023-04-27T07:34:52.514Z,101817.03
2023-04-27T07:37:19.729Z,101811.72
2023-04-27T07:39:46.449Z,101813.50
2023-04-27T07:42:12.965Z,101817.03
2023-04-27T07:44:39.486Z,101819.69
2023-04-27T07:47:05.984Z,101817.03
2023-04-27T07:49:32.510Z,101819.66
2023-04-27T07:51:59.057Z,101818.78
2023-04-27T07:54:25.603Z,101817.84
2023-04-27T07:56:52.093Z,101816.97
2023-04-27T07:59:18.649Z,101812.53
2023-04-27T08:01:45.200Z,101812.53
2023-04-27T08:04:11.886Z,101820.47
2023-04-27T08:06:39.350Z,101819.66
2023-04-27T08:09:06.041Z,101821.44
2023-04-27T08:11:32.639Z,101811.56
2023-04-27T08:13:59.201Z,101796.34
2023-04-27T08:16:25.866Z,101790.06
2023-04-27T08:18:52.433Z,101801.72
2023-04-27T08:21:18.957Z,101809.78
2023-04-27T08:23:45.531Z,101804.53
2023-04-27T08:26:15.506Z,101792.97
2023-04-27T08:28:42.076Z,101797.22
2023-04-27T08:31:08.585Z,101781.88
2023-04-27T08:33:35.147Z,101792.44
2023-04-27T08:36:01.738Z,101784.47
2023-04-27T08:38:28.416Z,101783.63
2023-04-27T08:40:54.939Z,101790.75
2023-04-27T08:43:21.451Z,101787.97
2023-04-27T08:45:48.913Z,101790.25
2023-04-27T08:48:15.562Z,101788.28
2023-04-27T08:50:43.694Z,101779.50
2023-04-27T08:53:19.978Z,101781.47
2023-04-27T08:55:46.461Z,101783.06
2023-04-27T08:58:13.066Z,101775.44
2023-04-27T09:00:40.721Z,101767.72
2023-04-27T09:03:08.295Z,101771.13
2023-04-27T09:05:35.042Z,101765.91
2023-04-27T09:08:03.795Z,101770.75
2023-04-27T09:10:30.347Z,101779.97
2023-04-27T09:13:00.278Z,101779.56
2023-04-27T09:15:27.752Z,101786.00
2023-04-27T09:17:57.633Z,101789.06
2023-04-27T09:20:24.536Z,101779.63
2023-04-27T09:22:52.235Z,101776.50
2023-04-27T09:25:28.838Z,101783.53
2023-04-27T09:27:56.121Z,101792.22
2023-04-27T09:30:22.698Z,101781.47
2023-04-27T09:32:55.767Z,101781.19
2023-04-27T09:35:24.385Z,101784.19
2023-04-27T09:37:51.181Z,101779.53
2023-04-27T09:40:18.938Z,101770.53
2023-04-27T09:42:46.076Z,101769.81
2023-04-27T09:45:12.632Z,101767.44
2023-04-27T09:47:39.206Z,101764.06
2023-04-27T09:50:06.084Z,101757.06
2023-04-27T09:52:32.685Z,101765.38
2023-04-27T09:54:59.198Z,101750.53
2023-04-27T09:57:36.692Z,101768.47
2023-04-27T10:00:18.507Z,101767.19
2023-04-27T10:03:25.552Z,101761.63
2023-04-27T10:06:29.822Z,101751.09
2023-04-27T10:08:56.640Z,101761.06
2023-04-27T10:11:39.802Z,101763.31
2023-04-27T10:14:10.086Z,101762.59
2023-04-27T10:16:47.566Z,101764.69
2023-04-27T10:19:14.617Z,101767.50
2023-04-27T10:22:02.459Z,101770.59
2023-04-27T10:24:40.686Z,101769.75
2023-04-27T10:27:08.232Z,101760.78
2023-04-27T10:29:44.542Z,101763.47
2023-04-27T10:32:25.335Z,101771.59
2023-04-27T10:34:52.436Z,101777.19
2023-04-27T10:37:19.061Z,101764.94
2023-04-27T10:39:49.161Z,101774.88
2023-04-27T10:42:26.999Z,101777.59
2023-04-27T10:44:57.238Z,101774.00
2023-04-27T10:47:23.794Z,101782.09
2023-04-27T10:49:53.665Z,101780.22
2023-04-27T10:52:20.160Z,101777.47
2023-04-27T10:54:46.725Z,101781.09
2023-04-27T10:57:13.464Z,101780.97
2023-04-27T10:59:53.829Z,101786.47
2023-04-27T11:02:27.315Z,101782.59
2023-04-27T11:04:54.149Z,101784.59
2023-04-27T11:07:27.337Z,101790.06
2023-04-27T11:09:54.010Z,101782.91
2023-04-27T11:12:20.568Z,101788.03
2023-04-27T11:14:47.116Z,101791.88
2023-04-27T11:17:13.696Z,101775.47
2023-04-27T11:19:47.061Z,101783.22
2023-04-27T11:22:14.197Z,101776.03
2023-04-27T11:24:47.216Z,101784.09
2023-04-27T11:27:13.750Z,101782.09
2023-04-27T11:29:40.288Z,101783.53
2023-04-27T11:32:06.887Z,101786.72
2023-04-27T11:34:33.520Z,101780.94
2023-04-27T11:37:17.344Z,101782.91
2023-04-27T11:39:45.237Z,101778.63
2023-04-27T11:42:21.563Z,101783.50
2023-04-27T11:44:54.950Z,101788.09
2023-04-27T11:47:21.904Z,101781.06
2023-04-27T11:49:49.304Z,101776.72
2023-04-27T11:52:16.247Z,101775.69
2023-04-27T11:54:54.121Z,101770.44
2023-04-27T11:57:30.794Z,101781.53
2023-04-27T11:59:58.109Z,101784.38
2023-04-27T12:02:24.778Z,101773.81
2023-04-27T12:04:51.606Z,101783.06
2023-04-27T12:07:18.714Z,101780.34
2023-04-27T12:09:45.377Z,101783.72
2023-04-27T12:12:11.904Z,101782.78
2023-04-27T12:14:38.496Z,101778.13
2023-04-27T12:17:05.172Z,101781.69
2023-04-27T12:19:31.721Z,101783.38
2023-04-27T12:21:58.517Z,101790.31
2023-04-27T12:24:25.068Z,101788.03
2023-04-27T12:26:51.787Z,101791.03
2023-04-27T12:29:18.338Z,101786.81
2023-04-27T12:31:44.978Z,101788.78
2023-04-27T12:34:11.759Z,101797.66
2023-04-27T12:36:38.570Z,101794.06
2023-04-27T12:39:15.657Z,101794.66
2023-04-27T12:41:43.937Z,101803.28
2023-04-27T12:44:10.988Z,101804.81
2023-04-27T12:46:37.714Z,101803.22
2023-04-27T12:49:04.288Z,101794.66
2023-04-27T12:51:30.815Z,101794.97
2023-04-27T12:54:00.222Z,101804.16
2023-04-27T12:56:28.187Z,101799.13
2023-04-27T12:58:54.996Z,101801.16
2023-04-27T13:01:22.048Z,101805.75
2023-04-27T13:03:48.764Z,101794.50
2023-04-27T13:06:15.499Z,101808.88
2023-04-27T13:08:42.061Z,101808.94
2023-04-27T13:11:08.632Z,101811.84
2023-04-27T13:13:35.399Z,101815.53
2023-04-27T13:16:02.017Z,101812.91
2023-04-27T13:18:28.573Z,101822.66
2023-04-27T13:20:55.180Z,101828.88
2023-04-27T13:23:21.701Z,101825.34
2023-04-27T13:25:48.262Z,101823.56
2023-04-27T13:28:14.892Z,101823.50
2023-04-27T13:30:41.669Z,101821.66
2023-04-27T13:33:21.784Z,101815.34
2023-04-27T13:35:50.603Z,101811.72
2023-04-27T13:38:17.175Z,101816.00
2023-04-27T13:40:43.781Z,101805.19
2023-04-27T13:43:10.325Z,101806.81
2023-04-27T13:45:36.874Z,101800.34
2023-04-27T13:48:03.478Z,101799.41
2023-04-27T13:50:30.054Z,101802.72
2023-04-27T13:52:56.697Z,101792.66
2023-04-27T13:55:23.310Z,101795.72
2023-04-27T13:57:49.864Z,101792.34
2023-04-27T14:00:16.735Z,101785.13
2023-04-27T14:02:43.383Z,101794.66
2023-04-27T14:05:10.141Z,101777.91
2023-04-27T14:07:36.871Z,101781.25
2023-04-27T14:10:04.201Z,101775.88
2023-04-27T14:12:34.034Z,101776.72
2023-04-27T14:15:00.632Z,101767.81
2023-04-27T14:17:27.244Z,101768.78
2023-04-27T14:19:53.776Z,101763.59
2023-04-27T14:22:20.415Z,101765.19
2023-04-27T14:24:47.021Z,101767.47
2023-04-27T14:27:14.628Z,101757.75
2023-04-27T14:29:41.196Z,101772.84
2023-04-27T14:32:07.813Z,101763.94
2023-04-27T14:34:34.559Z,101764.13
2023-04-27T14:37:01.093Z,101755.97
2023-04-27T14:39:27.665Z,101762.84
2023-04-27T14:41:54.357Z,101761.47
2023-04-27T14:44:21.009Z,101759.09
2023-04-27T14:46:47.595Z,101761.84
2023-04-27T14:49:14.390Z,101757.38
2023-04-27T14:51:43.346Z,101771.56
2023-04-27T14:54:10.148Z,101758.38
2023-04-27T14:56:36.852Z,101761.16
2023-04-27T14:59:03.439Z,101755.06
2023-04-27T15:01:30.020Z,101760.44
2023-04-27T15:03:56.715Z,101754.44
2023-04-27T15:06:23.817Z,101751.09
2023-04-27T15:08:50.377Z,101757.31
2023-04-27T15:11:16.958Z,101751.22
2023-04-27T15:13:43.468Z,101765.41
2023-04-27T15:16:10.105Z,101757.16
2023-04-27T15:18:36.707Z,101763.16
2023-04-27T15:21:03.247Z,101758.53
2023-04-27T15:23:29.796Z,101758.47
2023-04-27T15:25:57.696Z,101756.59
2023-04-27T15:28:24.301Z,101753.94
2023-04-27T15:30:50.925Z,101756.69
2023-04-27T15:33:17.770Z,101753.25
2023-04-27T15:35:44.462Z,101750.66
2023-04-27T15:38:12.129Z,101749.84
2023-04-27T15:40:39.046Z,101747.22
2023-04-27T15:43:05.659Z,101750.03
2023-04-27T15:45:32.191Z,101749.13
2023-04-27T15:47:58.729Z,101750.94
2023-04-27T15:50:25.570Z,101747.81
2023-04-27T15:52:52.166Z,101747.53
2023-04-27T15:55:18.798Z,101738.81
2023-04-27T15:57:45.406Z,101743.94
2023-04-27T16:00:12.423Z,101744.16
2023-04-27T16:02:39.513Z,101745.97
2023-04-27T16:05:06.920Z,101741.53
2023-04-27T16:07:36.836Z,101744.22
2023-04-27T16:10:03.930Z,101745.97
2023-04-27T16:12:30.525Z,101736.00
2023-04-27T16:14:57.071Z,101726.00
2023-04-27T16:17:24.469Z,101731.50
2023-04-27T16:19:51.112Z,101733.38
2023-04-27T16:22:17.705Z,101734.63
2023-04-27T16:24:44.276Z,101732.38
2023-04-27T16:27:10.834Z,101721.78
2023-04-27T16:29:37.400Z,101725.19
2023-04-27T16:32:04.050Z,101734.56
2023-04-27T16:34:30.656Z,101733.03
2023-04-27T16:36:57.272Z,101735.78
2023-04-27T16:39:23.780Z,101730.47
2023-04-27T16:41:50.340Z,101733.28
2023-04-27T16:44:16.926Z,101726.13
2023-04-27T16:46:43.451Z,101728.00
2023-04-27T16:49:10.174Z,101715.69
2023-04-27T16:51:36.724Z,101718.44
2023-04-27T16:54:03.296Z,101723.81
2023-04-27T16:56:34.188Z,101723.09
2023-04-27T16:59:01.160Z,101727.63
2023-04-27T17:01:27.784Z,101726.84
2023-04-27T17:03:54.495Z,101726.88
2023-04-27T17:06:21.236Z,101725.19
2023-04-27T17:08:47.862Z,101725.19
2023-04-27T17:11:14.912Z,101730.41
2023-04-27T17:13:41.420Z,101737.66
2023-04-27T17:16:08.054Z,101728.94
2023-04-27T17:18:34.623Z,101723.78
2023-04-27T17:21:01.176Z,101730.91
2023-04-27T17:23:27.784Z,101739.91
2023-04-27T17:25:54.298Z,101729.34
2023-04-27T17:28:20.892Z,101734.72
2023-04-27T17:30:47.451Z,101740.13
2023-04-27T17:33:14.909Z,101732.22
2023-04-27T17:35:41.692Z,101733.19
2023-04-27T17:38:08.248Z,101726.09
2023-04-27T17:40:34.835Z,101730.63
2023-04-27T17:43:01.395Z,101723.66
2023-04-27T17:45:28.370Z,101719.22
2023-04-27T17:47:55.060Z,101721.00
2023-04-27T17:50:21.742Z,101722.72
2023-04-27T17:52:48.293Z,101722.75
2023-04-27T17:55:14.876Z,101710.47
2023-04-27T17:57:41.380Z,101718.47
2023-04-27T18:00:08.441Z,101721.25
2023-04-27T18:02:35.101Z,101720.47
2023-04-27T18:05:05.614Z,101723.19
2023-04-27T18:07:34.621Z,101720.59
2023-04-27T18:10:01.208Z,101730.41
2023-04-27T18:12:27.845Z,101723.38
2023-04-27T18:14:54.340Z,101729.59
2023-04-27T18:17:20.905Z,101722.56
2023-04-27T18:19:55.279Z,101721.72
2023-04-27T18:22:27.668Z,101720.91
2023-04-27T18:24:54.210Z,101724.50
2023-04-27T18:27:20.735Z,101728.97
2023-04-27T18:29:47.313Z,101716.63
2023-04-27T18:32:13.858Z,101724.63
2023-04-27T18:34:40.464Z,101720.22
2023-04-27T18:37:07.036Z,101714.94
2023-04-27T18:39:33.562Z,101721.16
2023-04-27T18:42:00.142Z,101720.28
2023-04-27T18:44:26.706Z,101722.13
2023-04-27T18:46:53.269Z,101723.06
2023-04-27T18:49:19.972Z,101727.50
2023-04-27T18:51:46.545Z,101724.88
2023-04-27T18:54:13.929Z,101728.44
2023-04-27T18:56:40.471Z,101724.00
2023-04-27T18:59:07.023Z,101728.47
2023-04-27T19:01:33.988Z,101719.63
2023-04-27T19:04:00.918Z,101726.72
2023-04-27T19:06:27.727Z,101731.13
2023-04-27T19:08:54.287Z,101734.69
2023-04-27T19:11:20.861Z,101734.69
2023-04-27T19:13:47.439Z,101739.16
2023-04-27T19:16:13.979Z,101735.59
2023-04-27T19:18:40.622Z,101740.03
2023-04-27T19:21:10.011Z,101735.59
2023-04-27T19:23:36.735Z,101733.84
2023-04-27T19:26:12.515Z,101735.59
2023-04-27T19:28:40.088Z,101740.06
2023-04-27T19:31:06.657Z,101734.75
2023-04-27T19:33:33.287Z,101737.41
2023-04-27T19:35:59.855Z,101740.94
2023-04-27T19:38:26.431Z,101741.84
2023-04-27T19:40:53.007Z,101741.88
2023-04-27T19:43:20.015Z,101739.22
2023-04-27T19:45:46.581Z,101739.25
2023-04-27T19:48:13.160Z,101740.13
2023-04-27T19:50:42.873Z,101739.28
2023-04-27T19:53:09.407Z,101734.84
2023-04-27T19:55:35.930Z,101732.19
2023-04-27T19:58:02.537Z,101725.16
2023-04-27T20:00:29.091Z,101726.91
